Time;durP1;ratioP1;P1;durP2;ratioP2;P2;SDS_P1;SDS_P2;PMS_P1;PMS_P2;Temp;Humidity;BMP_temperature;BMP_pressure;BME280_temperature;BME280_humidity;BME280_pressure;Samples;Min_cycle;Max_cycle;Signal;HPM_P1;HPM_P2
2023/10/29 00:01:23;;;;;;;14.60;6.75;;;10.40;99.90;;;;;;5089988;28;20627;-79
2023/10/29 00:04:09;;;;;;;15.13;6.65;;;10.40;99.90;;;;;;5074872;28;20060;-78
2023/10/29 00:06:55;;;;;;;16.27;8.05;;;10.40;99.90;;;;;;5074286;28;20048;-79
2023/10/29 00:09:41;;;;;;;13.43;7.82;;;10.40;99.90;;;;;;5076272;28;20067;-78
2023/10/29 00:12:27;;;;;;;16.65;8.20;;;10.40;99.90;;;;;;5076089;28;20044;-78
2023/10/29 00:15:13;;;;;;;16.23;8.43;;;10.50;99.90;;;;;;5075557;28;20109;-76
2023/10/29 00:17:59;;;;;;;14.13;8.18;;;10.50;99.90;;;;;;5074545;28;20131;-75
2023/10/29 00:20:45;;;;;;;14.82;8.32;;;10.50;99.90;;;;;;5093410;28;20525;-79
2023/10/29 00:23:32;;;;;;;14.13;8.02;;;10.50;99.90;;;;;;5075000;28;20056;-79
2023/10/29 00:26:18;;;;;;;16.73;7.85;;;10.50;99.90;;;;;;5075442;28;20052;-79
2023/10/29 00:29:04;;;;;;;11.73;7.25;;;10.50;99.90;;;;;;5062505;28;20070;-78
2023/10/29 00:31:51;;;;;;;13.63;7.55;;;10.60;99.90;;;;;;5076053;28;20052;-77
2023/10/29 00:34:40;;;;;;;14.07;6.70;;;10.60;99.90;;;;;;5094651;28;20044;-79
2023/10/29 00:37:26;;;;;;;13.75;7.65;;;10.60;99.90;;;;;;5075223;28;20048;-78
2023/10/29 00:40:14;;;;;;;16.50;6.93;;;10.60;99.90;;;;;;5075039;28;20048;-79
2023/10/29 00:43:00;;;;;;;19.45;8.82;;;10.60;99.90;;;;;;5094503;28;20108;-79
2023/10/29 00:45:53;;;;;;;19.88;5.68;;;10.60;99.90;;;;;;5076235;28;20126;-78
2023/10/29 00:48:39;;;;;;;13.07;7.22;;;10.60;99.90;;;;;;5076032;28;20131;-75
2023/10/29 00:51:26;;;;;;;18.92;7.00;;;10.60;99.90;;;;;;5076342;28;20055;-75
2023/10/29 00:54:12;;;;;;;10.90;5.70;;;10.60;99.90;;;;;;5075769;28;20052;-75
2023/10/29 00:56:58;;;;;;;13.05;6.47;;;10.70;99.90;;;;;;5074445;28;20051;-75
2023/10/29 00:59:45;;;;;;;10.85;5.80;;;10.70;99.90;;;;;;5075030;28;20047;-79
2023/10/29 01:02:31;;;;;;;9.23;6.03;;;10.70;99.90;;;;;;5093130;28;20075;-79
2023/10/29 01:05:17;;;;;;;13.95;5.95;;;10.70;99.90;;;;;;5073699;28;20052;-74
2023/10/29 01:08:05;;;;;;;12.80;6.22;;;10.70;99.90;;;;;;5092402;28;20492;-75
2023/10/29 01:10:51;;;;;;;10.48;6.05;;;10.70;99.90;;;;;;5093390;28;20044;-76
2023/10/29 01:13:38;;;;;;;12.13;6.20;;;10.70;99.90;;;;;;5092859;28;20054;-75
2023/10/29 01:16:24;;;;;;;15.10;6.78;;;10.80;99.90;;;;;;5074687;28;20105;-75
2023/10/29 01:19:10;;;;;;;10.13;6.05;;;10.80;99.90;;;;;;5075381;28;20056;-79
2023/10/29 01:21:56;;;;;;;9.63;6.45;;;10.80;99.90;;;;;;5075202;28;20121;-76
2023/10/29 01:24:43;;;;;;;10.32;5.80;;;10.80;99.90;;;;;;5073307;28;20101;-75
2023/10/29 01:27:29;;;;;;;10.90;6.18;;;10.90;99.90;;;;;;5073972;28;20499;-76
2023/10/29 01:30:15;;;;;;;11.30;6.07;;;10.90;99.90;;;;;;5073641;28;20044;-76
2023/10/29 01:33:01;;;;;;;8.43;5.15;;;10.90;99.90;;;;;;5059616;28;20071;-76
2023/10/29 01:35:47;;;;;;;12.43;5.22;;;10.90;99.90;;;;;;5074084;28;20052;-74
2023/10/29 01:38:34;;;;;;;10.70;5.72;;;11.00;99.90;;;;;;5060704;28;20077;-75
2023/10/29 01:41:20;;;;;;;8.93;4.85;;;11.00;99.90;;;;;;5074680;28;20087;-76
2023/10/29 01:44:07;;;;;;;8.98;4.97;;;11.00;99.90;;;;;;5047429;28;20087;-76
2023/10/29 01:46:53;;;;;;;9.10;5.00;;;11.00;99.90;;;;;;5077017;28;20048;-75
2023/10/29 01:49:39;;;;;;;8.95;5.25;;;11.00;99.90;;;;;;5091243;28;20123;-75
2023/10/29 01:52:26;;;;;;;7.53;5.18;;;11.10;99.90;;;;;;5083754;28;20079;-77
2023/10/29 01:55:12;;;;;;;7.32;4.75;;;11.10;99.90;;;;;;5060079;28;20062;-79
2023/10/29 01:57:58;;;;;;;8.80;4.95;;;11.20;99.90;;;;;;5073135;28;20553;-76
2023/10/29 02:00:44;;;;;;;9.65;6.35;;;11.20;99.90;;;;;;5073179;28;20059;-76
2023/10/29 02:03:30;;;;;;;10.60;6.20;;;11.20;99.90;;;;;;5065196;28;20131;-76
2023/10/29 02:06:17;;;;;;;10.10;6.32;;;11.20;99.90;;;;;;5072765;28;20051;-75
2023/10/29 02:09:04;;;;;;;13.00;6.70;;;11.30;99.90;;;;;;5059232;28;20055;-75
2023/10/29 02:11:50;;;;;;;7.35;5.85;;;11.30;99.90;;;;;;5060038;28;20052;-76
2023/10/29 02:14:36;;;;;;;11.02;5.93;;;11.40;99.90;;;;;;5092567;28;20044;-77
2023/10/29 02:17:25;;;;;;;11.13;6.65;;;11.40;99.90;;;;;;5092087;28;20082;-75
2023/10/29 02:20:12;;;;;;;11.60;6.93;;;11.40;99.90;;;;;;5091773;28;20059;-77
2023/10/29 02:22:58;;;;;;;12.40;6.90;;;11.50;99.90;;;;;;5059014;28;20044;-76
2023/10/29 02:25:44;;;;;;;9.73;6.53;;;11.50;99.90;;;;;;5073149;28;20052;-78
2023/10/29 02:28:30;;;;;;;13.70;7.82;;;11.50;99.90;;;;;;5073211;28;20044;-76
2023/10/29 02:31:17;;;;;;;8.95;5.93;;;11.60;99.90;;;;;;5072074;28;20200;-76
2023/10/29 02:34:03;;;;;;;13.77;7.32;;;11.60;99.90;;;;;;5090969;28;20083;-76
2023/10/29 02:36:48;;;;;;;9.25;6.22;;;11.60;99.90;;;;;;5071702;28;20062;-75
2023/10/29 02:39:35;;;;;;;12.15;6.70;;;11.60;99.90;;;;;;5072389;28;20541;-77
2023/10/29 02:42:21;;;;;;;11.40;6.80;;;11.60;99.90;;;;;;5058075;28;20083;-77
2023/10/29 02:45:07;;;;;;;10.50;6.07;;;11.60;99.90;;;;;;5073739;28;20047;-78
2023/10/29 02:47:54;;;;;;;8.63;6.30;;;11.60;99.90;;;;;;5073152;28;20404;-77
2023/10/29 02:50:41;;;;;;;15.30;6.28;;;11.70;99.90;;;;;;5091106;28;20047;-77
2023/10/29 02:53:28;;;;;;;11.85;5.72;;;11.70;99.90;;;;;;5057237;28;20056;-77
2023/10/29 02:56:14;;;;;;;10.38;5.25;;;11.70;99.90;;;;;;5071922;28;20048;-76
2023/10/29 02:59:01;;;;;;;6.45;4.32;;;11.70;99.90;;;;;;5072028;28;20052;-76
2023/10/29 03:01:47;;;;;;;9.60;3.83;;;11.80;99.90;;;;;;5085317;28;20051;-76
2023/10/29 03:04:34;;;;;;;7.43;3.67;;;11.80;99.90;;;;;;5073332;28;20116;-78
2023/10/29 03:07:20;;;;;;;6.75;3.60;;;11.80;99.90;;;;;;5090784;28;20052;-75
2023/10/29 03:10:06;;;;;;;9.40;3.95;;;11.80;99.90;;;;;;5076098;28;20105;-76
2023/10/29 03:12:52;;;;;;;8.27;3.67;;;11.80;99.90;;;;;;5071661;28;20056;-76
2023/10/29 03:15:38;;;;;;;9.20;3.67;;;11.80;99.90;;;;;;5065189;28;20488;-76
2023/10/29 03:18:24;;;;;;;7.10;3.03;;;11.80;99.90;;;;;;5088719;28;20086;-81
2023/10/29 03:21:13;;;;;;;6.93;3.40;;;11.80;99.90;;;;;;5087099;28;20067;-76
2023/10/29 03:23:59;;;;;;;4.50;2.53;;;11.80;99.90;;;;;;5071820;28;20074;-76
2023/10/29 03:26:45;;;;;;;5.60;2.45;;;11.80;99.90;;;;;;5058298;28;20060;-76
2023/10/29 03:29:32;;;;;;;6.32;2.95;;;11.80;99.90;;;;;;5090177;28;20044;-78
2023/10/29 03:32:18;;;;;;;5.07;2.20;;;11.90;99.90;;;;;;5072326;28;20052;-76
2023/10/29 03:35:04;;;;;;;7.07;2.15;;;11.90;99.90;;;;;;5090427;28;20052;-75
2023/10/29 03:37:50;;;;;;;7.40;2.47;;;11.80;99.90;;;;;;5072808;28;20119;-76
2023/10/29 03:40:36;;;;;;;7.13;2.53;;;11.80;99.90;;;;;;5077092;28;20055;-77
2023/10/29 03:43:23;;;;;;;7.18;2.50;;;11.90;99.90;;;;;;5094296;28;20109;-75
2023/10/29 03:46:10;;;;;;;6.78;2.47;;;11.90;99.90;;;;;;5074916;28;20044;-75
2023/10/29 03:48:56;;;;;;;5.63;2.03;;;11.90;99.90;;;;;;5076267;28;20058;-76
2023/10/29 03:51:46;;;;;;;6.82;2.65;;;11.90;99.90;;;;;;5075469;28;20083;-74
2023/10/29 03:54:34;;;;;;;6.40;2.10;;;11.80;99.90;;;;;;5093577;28;20122;-75
2023/10/29 03:57:20;;;;;;;4.88;2.53;;;11.80;99.90;;;;;;5075567;28;20048;-75
2023/10/29 04:00:07;;;;;;;7.25;2.05;;;11.80;99.90;;;;;;5062056;28;20048;-76
2023/10/29 04:02:53;;;;;;;5.20;1.73;;;11.80;99.90;;;;;;5061693;28;20048;-75
2023/10/29 04:05:39;;;;;;;4.25;1.65;;;11.80;99.90;;;;;;5062420;28;20052;-77
2023/10/29 04:08:25;;;;;;;8.32;1.80;;;11.80;99.90;;;;;;5076100;28;20062;-77
2023/10/29 04:11:11;;;;;;;5.60;2.35;;;11.80;99.90;;;;;;5062169;28;20135;-76
2023/10/29 04:13:57;;;;;;;6.63;2.10;;;11.70;99.90;;;;;;5093788;28;20511;-76
2023/10/29 04:16:43;;;;;;;5.15;1.70;;;11.70;99.90;;;;;;5061496;28;20059;-76
2023/10/29 04:19:29;;;;;;;7.00;1.50;;;11.70;99.90;;;;;;5075006;28;20056;-74
2023/10/29 04:22:15;;;;;;;5.07;1.80;;;11.70;99.90;;;;;;5075788;28;20048;-76
2023/10/29 04:25:01;;;;;;;5.10;1.30;;;11.80;99.90;;;;;;5075577;28;20563;-80
2023/10/29 04:27:47;;;;;;;4.93;1.30;;;11.80;99.90;;;;;;5074562;28;20040;-80
2023/10/29 04:30:33;;;;;;;3.25;1.20;;;11.80;99.90;;;;;;5061645;28;20051;-76
2023/10/29 04:33:19;;;;;;;5.03;1.40;;;11.90;99.90;;;;;;5062491;28;20075;-77
2023/10/29 04:36:06;;;;;;;4.07;1.33;;;11.90;99.90;;;;;;5093818;28;20052;-79
2023/10/29 04:38:52;;;;;;;2.85;0.93;;;12.00;99.90;;;;;;5093774;28;20078;-79
2023/10/29 04:41:38;;;;;;;3.97;0.70;;;12.10;99.90;;;;;;5076152;28;20051;-80
2023/10/29 04:44:26;;;;;;;3.17;0.73;;;12.20;99.90;;;;;;5075237;28;20068;-77
2023/10/29 04:47:12;;;;;;;8.95;1.02;;;12.30;99.90;;;;;;5074830;28;20059;-75
2023/10/29 04:49:58;;;;;;;6.10;0.70;;;12.30;99.90;;;;;;5061398;28;20058;-76
2023/10/29 04:52:44;;;;;;;9.68;1.00;;;12.20;99.90;;;;;;5093196;28;20455;-76
2023/10/29 04:55:30;;;;;;;2.40;0.70;;;12.10;99.90;;;;;;5074976;28;20078;-75
2023/10/29 04:58:16;;;;;;;2.05;0.75;;;12.00;99.90;;;;;;5075441;28;20126;-76
2023/10/29 05:01:03;;;;;;;2.83;0.63;;;11.90;99.90;;;;;;5092983;28;20052;-76
2023/10/29 05:03:49;;;;;;;3.03;0.50;;;11.90;99.90;;;;;;5092345;28;20055;-79
2023/10/29 05:06:35;;;;;;;3.40;0.50;;;11.80;99.90;;;;;;5092814;28;20079;-79
2023/10/29 05:09:21;;;;;;;2.60;0.57;;;11.70;99.90;;;;;;5060727;28;20044;-75
2023/10/29 05:12:07;;;;;;;3.65;0.65;;;11.70;99.90;;;;;;5075511;28;20147;-80
2023/10/29 05:14:56;;;;;;;2.10;0.38;;;11.70;99.90;;;;;;5075038;28;20051;-80
2023/10/29 05:17:42;;;;;;;2.58;0.70;;;11.60;99.90;;;;;;5062537;28;20101;-79
2023/10/29 05:20:29;;;;;;;2.15;0.85;;;11.60;99.90;;;;;;5074179;28;20071;-78
2023/10/29 05:23:15;;;;;;;3.40;0.47;;;11.50;99.90;;;;;;5075027;28;20044;-80
2023/10/29 05:26:01;;;;;;;1.75;0.40;;;11.50;99.90;;;;;;5075150;28;20090;-76
2023/10/29 05:28:47;;;;;;;5.10;0.50;;;11.40;99.90;;;;;;5061165;28;20090;-78
2023/10/29 05:31:33;;;;;;;4.30;0.70;;;11.40;99.90;;;;;;5060563;28;20416;-80
2023/10/29 05:34:19;;;;;;;2.30;0.50;;;11.50;99.90;;;;;;5074616;28;20622;-77
2023/10/29 05:37:05;;;;;;;3.08;0.50;;;11.50;99.90;;;;;;5060617;28;20484;-79
2023/10/29 05:39:51;;;;;;;1.30;0.50;;;11.40;99.90;;;;;;5074631;28;20087;-80
2023/10/29 05:42:37;;;;;;;4.35;0.90;;;11.40;99.90;;;;;;5092687;28;20048;-79
2023/10/29 05:45:23;;;;;;;2.60;0.40;;;11.40;99.90;;;;;;5074305;28;20451;-77
2023/10/29 05:48:09;;;;;;;2.03;0.55;;;11.40;99.90;;;;;;5072382;28;20048;-78
2023/10/29 05:50:55;;;;;;;2.88;0.45;;;11.50;99.90;;;;;;5092830;28;20106;-78
2023/10/29 05:53:41;;;;;;;4.20;0.60;;;11.50;99.90;;;;;;5074184;28;20048;-76
2023/10/29 05:56:27;;;;;;;1.80;0.43;;;11.60;99.90;;;;;;5090482;28;20071;-76
2023/10/29 05:59:13;;;;;;;6.15;0.95;;;11.60;99.90;;;;;;5073917;28;20381;-79
2023/10/29 06:02:00;;;;;;;2.75;0.60;;;11.70;99.90;;;;;;5071805;28;20408;-77
2023/10/29 06:04:46;;;;;;;3.78;0.70;;;11.70;99.90;;;;;;5073876;28;20055;-76
2023/10/29 06:07:32;;;;;;;4.53;0.90;;;11.80;99.90;;;;;;5073273;28;20522;-75
2023/10/29 06:10:18;;;;;;;3.22;0.85;;;12.00;99.90;;;;;;5074329;28;20073;-76
2023/10/29 06:13:04;;;;;;;3.05;0.50;;;12.00;99.90;;;;;;5061443;28;20411;-81
2023/10/29 06:15:50;;;;;;;1.95;0.75;;;12.10;99.90;;;;;;5072452;28;20071;-75
2023/10/29 06:18:36;;;;;;;5.35;0.95;;;12.10;99.90;;;;;;5072798;28;20174;-78
2023/10/29 06:21:25;;;;;;;2.67;0.70;;;12.10;99.90;;;;;;5073246;28;20485;-78
2023/10/29 06:24:12;;;;;;;6.03;1.25;;;12.10;99.90;;;;;;5090984;28;20048;-80
2023/10/29 06:26:58;;;;;;;3.72;0.60;;;12.10;99.90;;;;;;5072942;28;20127;-78
2023/10/29 06:29:44;;;;;;;4.35;0.82;;;12.00;99.90;;;;;;5059500;28;20075;-78
2023/10/29 06:32:31;;;;;;;6.53;0.88;;;12.00;99.90;;;;;;5091001;28;20408;-81
2023/10/29 06:35:17;;;;;;;2.88;0.50;;;12.00;99.90;;;;;;5059133;28;20067;-79
2023/10/29 06:38:03;;;;;;;4.68;0.90;;;12.00;99.90;;;;;;5059498;28;20605;-79
2023/10/29 06:40:49;;;;;;;2.35;0.52;;;12.00;99.90;;;;;;5073648;28;20060;-79
2023/10/29 06:43:35;;;;;;;3.50;0.40;;;12.00;99.90;;;;;;5060514;28;20060;-78
2023/10/29 06:46:21;;;;;;;3.10;0.63;;;12.00;99.90;;;;;;5073698;28;20113;-77
2023/10/29 06:49:07;;;;;;;2.20;0.40;;;12.00;99.90;;;;;;5071571;28;20060;-77
2023/10/29 06:51:53;;;;;;;1.08;0.45;;;12.00;99.90;;;;;;5059490;28;20088;-76
2023/10/29 06:54:40;;;;;;;4.10;0.35;;;12.00;99.90;;;;;;5090301;28;20495;-79
2023/10/29 06:57:26;;;;;;;1.75;0.50;;;12.10;99.90;;;;;;5091250;28;20094;-80
2023/10/29 07:00:12;;;;;;;3.10;0.70;;;12.00;99.90;;;;;;5072962;28;20052;-78
2023/10/29 07:02:59;;;;;;;2.17;0.77;;;12.10;99.90;;;;;;5090015;28;20036;-77
2023/10/29 07:05:45;;;;;;;1.75;0.60;;;12.00;99.90;;;;;;5071941;28;20086;-75
2023/10/29 07:08:31;;;;;;;4.50;1.40;;;12.10;99.90;;;;;;5071814;28;20044;-78
2023/10/29 07:11:19;;;;;;;4.63;0.30;;;12.10;99.90;;;;;;5071987;28;20056;-77
2023/10/29 07:14:05;;;;;;;2.55;0.65;;;12.10;99.90;;;;;;5075507;28;20044;-78
2023/10/29 07:16:51;;;;;;;4.22;0.63;;;12.10;99.90;;;;;;5072533;28;20044;-77
2023/10/29 07:19:38;;;;;;;5.10;0.50;;;12.10;99.90;;;;;;5072696;28;20055;-79
2023/10/29 07:22:24;;;;;;;4.75;0.68;;;12.20;99.90;;;;;;5090296;28;20537;-78
2023/10/29 07:25:10;;;;;;;8.23;0.73;;;12.20;99.90;;;;;;5071780;28;20047;-78
2023/10/29 07:27:56;;;;;;;8.07;1.35;;;12.20;99.90;;;;;;5073049;28;20492;-78
2023/10/29 07:30:43;;;;;;;4.38;0.50;;;12.20;99.90;;;;;;5071921;28;20059;-78
2023/10/29 07:33:30;;;;;;;5.93;0.70;;;12.20;99.90;;;;;;5090875;28;20467;-77
2023/10/29 07:36:17;;;;;;;4.10;0.70;;;12.20;99.90;;;;;;5071722;28;20059;-78
2023/10/29 07:39:03;;;;;;;5.93;0.85;;;12.30;99.90;;;;;;5090550;28;20052;-77
2023/10/29 07:41:49;;;;;;;6.25;0.80;;;12.40;99.90;;;;;;5072301;28;20126;-76
2023/10/29 07:44:36;;;;;;;5.78;1.05;;;12.40;99.90;;;;;;5072235;28;20052;-79
2023/10/29 07:47:22;;;;;;;4.07;0.98;;;12.40;99.90;;;;;;5089936;28;20514;-81
2023/10/29 07:50:11;;;;;;;3.47;0.88;;;12.50;99.90;;;;;;5071831;28;20132;-80
2023/10/29 07:52:57;;;;;;;7.28;1.02;;;12.60;99.90;;;;;;5071994;28;20052;-80
2023/10/29 07:55:43;;;;;;;6.68;1.42;;;12.50;99.90;;;;;;5058465;28;20052;-79
2023/10/29 07:58:29;;;;;;;4.47;0.95;;;12.50;99.90;;;;;;5072267;28;20086;-78
2023/10/29 08:01:16;;;;;;;6.10;1.45;;;12.50;99.90;;;;;;5071506;28;20518;-80
2023/10/29 08:04:02;;;;;;;5.70;0.98;;;12.50;99.90;;;;;;5076364;28;20052;-80
2023/10/29 08:06:48;;;;;;;7.38;1.23;;;12.50;99.90;;;;;;5090524;28;20769;-80
2023/10/29 08:09:34;;;;;;;8.68;1.65;;;12.50;99.90;;;;;;5071702;28;20087;-79
2023/10/29 08:12:20;;;;;;;8.77;1.42;;;12.50;99.90;;;;;;5058343;28;20138;-78
2023/10/29 08:15:07;;;;;;;5.93;1.00;;;12.40;99.90;;;;;;5072134;28;20788;-81
2023/10/29 08:17:54;;;;;;;7.43;2.08;;;12.20;99.90;;;;;;5058324;28;20063;-79
2023/10/29 08:20:40;;;;;;;8.93;1.60;;;12.10;99.90;;;;;;5058757;28;20561;-80
2023/10/29 08:23:26;;;;;;;9.27;1.30;;;11.90;99.90;;;;;;5090628;28;20048;-78
2023/10/29 08:26:12;;;;;;;8.82;1.35;;;11.80;99.90;;;;;;5075423;28;20044;-80
2023/10/29 08:28:58;;;;;;;6.00;1.08;;;11.80;99.90;;;;;;5062578;28;20277;-80
2023/10/29 08:31:44;;;;;;;9.65;1.17;;;11.80;99.90;;;;;;5076060;28;20137;-80
2023/10/29 08:34:30;;;;;;;9.27;1.30;;;11.90;99.90;;;;;;5078520;28;20087;-76
2023/10/29 08:37:17;;;;;;;6.38;1.42;;;11.90;99.90;;;;;;5077158;28;20518;-78
2023/10/29 08:40:07;;;;;;;9.45;1.15;;;12.00;99.90;;;;;;5094398;28;20147;-77
2023/10/29 08:42:53;;;;;;;6.20;1.60;;;11.90;99.90;;;;;;5074952;28;20542;-77
2023/10/29 08:45:39;;;;;;;9.13;1.67;;;11.90;99.90;;;;;;5091935;28;20059;-77
2023/10/29 08:48:25;;;;;;;7.63;1.88;;;11.90;99.90;;;;;;5093105;28;20052;-79
2023/10/29 08:51:14;;;;;;;13.50;2.08;;;11.90;99.90;;;;;;5075760;28;20052;-79
2023/10/29 08:54:02;;;;;;;11.43;1.45;;;11.80;99.90;;;;;;5061706;28;20504;-77
2023/10/29 08:56:48;;;;;;;7.55;1.92;;;11.90;99.90;;;;;;5074966;28;20052;-77
2023/10/29 08:59:34;;;;;;;11.65;1.65;;;11.90;99.90;;;;;;5075350;28;20048;-75
2023/10/29 09:02:20;;;;;;;6.60;1.75;;;12.00;99.90;;;;;;5061268;28;20052;-77
2023/10/29 09:05:07;;;;;;;10.80;1.75;;;12.10;99.90;;;;;;5093635;28;20055;-78
2023/10/29 09:07:53;;;;;;;8.82;1.13;;;12.10;99.90;;;;;;5073688;28;20476;-77
2023/10/29 09:10:42;;;;;;;10.57;1.60;;;12.20;99.90;;;;;;5074167;28;20052;-77
2023/10/29 09:13:28;;;;;;;8.52;1.40;;;12.20;99.90;;;;;;5092868;28;20070;-75
2023/10/29 09:16:14;;;;;;;10.30;1.40;;;12.20;99.90;;;;;;5075179;28;20105;-78
2023/10/29 09:19:00;;;;;;;3.25;0.70;;;12.40;99.90;;;;;;5060905;28;20484;-76
2023/10/29 09:21:47;;;;;;;9.05;1.80;;;12.60;99.90;;;;;;5077058;28;20457;-77
2023/10/29 09:24:33;;;;;;;9.70;1.42;;;12.80;99.90;;;;;;5074430;28;20399;-75
2023/10/29 09:27:19;;;;;;;8.43;1.60;;;12.80;99.90;;;;;;5060705;28;20549;-79
2023/10/29 09:30:06;;;;;;;9.95;1.73;;;12.90;99.90;;;;;;5074420;28;20480;-77
2023/10/29 09:32:52;;;;;;;6.75;0.98;;;12.80;99.90;;;;;;5073965;28;20503;-76
2023/10/29 09:35:39;;;;;;;7.20;1.42;;;12.80;99.90;;;;;;5059313;28;20052;-77
2023/10/29 09:38:25;;;;;;;9.18;1.40;;;12.70;99.90;;;;;;5090854;28;20062;-76
2023/10/29 09:41:18;;;;;;;5.57;1.25;;;12.70;99.90;;;;;;5073700;28;20400;-76
2023/10/29 09:44:09;;;;;;;6.03;1.05;;;12.70;99.90;;;;;;5091939;28;20147;-76
2023/10/29 09:47:02;;;;;;;12.20;1.42;;;12.60;99.90;;;;;;5074139;28;20048;-77
2023/10/29 09:49:50;;;;;;;14.57;1.75;;;12.60;99.90;;;;;;5073753;28;20448;-76
2023/10/29 09:52:36;;;;;;;9.88;1.45;;;12.60;99.90;;;;;;5073711;28;20052;-77
2023/10/29 09:55:23;;;;;;;8.25;1.33;;;12.70;99.90;;;;;;5072336;28;20051;-77
2023/10/29 09:58:09;;;;;;;11.30;2.08;;;12.70;99.90;;;;;;5059528;28;20076;-77
2023/10/29 10:00:58;;;;;;;6.07;1.35;;;12.80;99.90;;;;;;5091943;28;20056;-77
2023/10/29 10:03:45;;;;;;;7.80;1.55;;;12.80;99.90;;;;;;5073087;28;20047;-77
2023/10/29 10:06:32;;;;;;;8.25;1.40;;;12.80;99.90;;;;;;5091700;28;20058;-79
2023/10/29 10:09:18;;;;;;;9.90;1.65;;;12.80;99.90;;;;;;5091735;28;20055;-78
2023/10/29 10:12:05;;;;;;;8.15;1.10;;;12.80;99.90;;;;;;5059739;28;20063;-79
2023/10/29 10:14:53;;;;;;;12.88;1.23;;;12.80;99.90;;;;;;5073297;28;20059;-80
2023/10/29 10:17:39;;;;;;;4.00;1.17;;;12.90;99.90;;;;;;5091897;28;20083;-77
2023/10/29 10:20:26;;;;;;;10.45;1.27;;;13.10;99.90;;;;;;5073317;28;20056;-81
2023/10/29 10:23:13;;;;;;;6.07;1.45;;;13.20;99.90;;;;;;5072612;28;20062;-77
2023/10/29 10:25:59;;;;;;;7.55;1.20;;;13.40;99.90;;;;;;5074403;28;20055;-76
2023/10/29 10:28:56;;;;;;;5.93;1.00;;;13.50;99.90;;;;;;5095644;28;20055;-77
2023/10/29 10:31:42;;;;;;;5.70;1.45;;;13.60;99.90;;;;;;5073265;28;20048;-78
2023/10/29 10:34:29;;;;;;;8.02;1.27;;;13.80;99.90;;;;;;5091223;28;20510;-78
2023/10/29 10:37:16;;;;;;;9.00;1.85;;;13.90;99.90;;;;;;5072591;28;20056;-77
2023/10/29 10:40:23;;;;;;;6.05;1.33;;;13.80;99.90;;;;;;5072989;28;20052;-80
2023/10/29 10:43:09;;;;;;;3.20;0.98;;;13.80;99.90;;;;;;5090683;28;20078;-79
2023/10/29 10:45:58;;;;;;;4.80;1.00;;;13.90;99.90;;;;;;5073469;28;20500;-76
2023/10/29 10:48:44;;;;;;;12.77;1.10;;;14.00;99.90;;;;;;5072703;28;20052;-77
2023/10/29 10:51:31;;;;;;;4.78;0.98;;;13.90;99.90;;;;;;5090692;28;20064;-76
2023/10/29 10:54:18;;;;;;;5.15;1.23;;;13.80;99.90;;;;;;5072959;28;20060;-76
2023/10/29 10:57:06;;;;;;;5.07;1.00;;;13.80;99.90;;;;;;5072560;28;20109;-76
2023/10/29 10:59:59;;;;;;;5.72;1.08;;;13.60;99.90;;;;;;5076426;28;20048;-76
2023/10/29 11:02:46;;;;;;;9.88;1.15;;;13.60;99.90;;;;;;5071858;28;20130;-76
2023/10/29 11:05:33;;;;;;;5.65;1.00;;;13.60;99.90;;;;;;5072490;28;20487;-77
2023/10/29 11:08:21;;;;;;;5.10;1.35;;;13.60;99.90;;;;;;5058288;28;20105;-75
2023/10/29 11:11:08;;;;;;;6.55;1.25;;;13.70;99.90;;;;;;5090314;28;20060;-77
2023/10/29 11:14:14;;;;;;;9.07;1.25;;;13.80;99.90;;;;;;5089426;28;20052;-79
2023/10/29 11:17:00;;;;;;;7.07;1.35;;;13.70;99.90;;;;;;5072093;28;20054;-77
2023/10/29 11:19:47;;;;;;;5.88;0.98;;;13.60;99.90;;;;;;5072534;28;20565;-80
2023/10/29 11:22:47;;;;;;;6.68;1.25;;;13.50;99.90;;;;;;5072604;28;20078;-78
2023/10/29 11:25:34;;;;;;;6.07;1.02;;;13.60;99.90;;;;;;5072306;28;20112;-80
2023/10/29 11:28:32;;;;;;;6.35;1.20;;;14.10;99.90;;;;;;5071898;28;20083;-78
2023/10/29 11:31:20;;;;;;;9.48;1.58;;;14.50;99.90;;;;;;5072796;28;20412;-78
2023/10/29 11:34:06;;;;;;;6.00;1.30;;;14.30;99.90;;;;;;5075712;28;20040;-78
2023/10/29 11:36:52;;;;;;;5.38;1.00;;;14.20;99.90;;;;;;5072483;28;20411;-79
2023/10/29 11:39:38;;;;;;;7.82;1.35;;;14.40;99.90;;;;;;5092305;28;20052;-76
2023/10/29 11:42:26;;;;;;;6.35;1.02;;;14.60;99.90;;;;;;5073936;28;20520;-76
2023/10/29 11:46:11;;;;;;;6.00;1.40;;;14.40;99.90;;;;;;5077894;28;20051;-76
2023/10/29 11:49:04;;;;;;;6.13;1.38;;;14.70;99.90;;;;;;5067407;28;20051;-75
2023/10/29 11:51:57;;;;;;;5.72;1.52;;;15.00;99.90;;;;;;5072332;28;20135;-75
2023/10/29 11:54:43;;;;;;;4.72;0.93;;;14.90;99.90;;;;;;5058634;28;20051;-78
2023/10/29 11:57:30;;;;;;;7.80;1.75;;;14.70;99.90;;;;;;5059078;28;20040;-76
2023/10/29 12:00:16;;;;;;;5.28;1.95;;;14.60;99.90;;;;;;5075357;28;20055;-80
2023/10/29 12:03:03;;;;;;;6.03;1.23;;;14.50;99.90;;;;;;5078971;28;20142;-74
2023/10/29 12:05:55;;;;;;;11.63;1.90;;;14.30;99.90;;;;;;5075433;28;20058;-75
2023/10/29 12:08:41;;;;;;;9.35;1.73;;;14.10;99.90;;;;;;5092684;28;20048;-75
2023/10/29 12:11:27;;;;;;;9.00;1.27;;;14.00;99.90;;;;;;5062073;28;20052;-78
2023/10/29 12:14:15;;;;;;;13.68;1.50;;;14.00;99.90;;;;;;5062043;28;20048;-76
2023/10/29 12:17:01;;;;;;;5.82;1.08;;;14.70;99.90;;;;;;5074931;28;20048;-77
2023/10/29 12:19:47;;;;;;;9.02;1.75;;;14.90;99.90;;;;;;5075373;28;20101;-75
2023/10/29 12:22:35;;;;;;;8.07;1.77;;;14.80;99.90;;;;;;5093483;28;20136;-74
2023/10/29 12:25:27;;;;;;;8.40;1.13;;;14.50;99.90;;;;;;5081484;28;20050;-76
2023/10/29 12:28:14;;;;;;;11.48;1.95;;;14.30;99.90;;;;;;5113403;28;20487;-78
2023/10/29 12:31:00;;;;;;;8.88;1.58;;;14.10;99.90;;;;;;5081683;28;20051;-76
2023/10/29 12:33:54;;;;;;;9.05;2.28;;;14.00;99.90;;;;;;5095093;28;20142;-76
2023/10/29 12:36:48;;;;;;;6.93;1.87;;;14.00;99.90;;;;;;5094804;28;20108;-76
2023/10/29 12:39:37;;;;;;;10.65;1.60;;;14.00;99.90;;;;;;5081113;28;20048;-76
2023/10/29 12:42:53;;;;;;;13.45;2.20;;;13.90;99.90;;;;;;5113152;28;20051;-76
2023/10/29 12:45:39;;;;;;;11.13;2.20;;;14.00;99.90;;;;;;5113768;28;20047;-77
2023/10/29 12:48:25;;;;;;;11.93;2.15;;;13.90;99.90;;;;;;5081224;28;20210;-77
2023/10/29 12:51:11;;;;;;;10.95;1.67;;;13.90;99.90;;;;;;5094774;28;20048;-75
2023/10/29 12:54:19;;;;;;;8.45;1.38;;;13.80;99.90;;;;;;5095294;28;20051;-78
2023/10/29 12:57:11;;;;;;;12.75;1.70;;;13.70;99.90;;;;;;5112797;28;20043;-77
2023/10/29 12:59:57;;;;;;;9.25;1.98;;;13.80;99.90;;;;;;5081612;28;20052;-76
2023/10/29 13:02:43;;;;;;;9.85;2.20;;;13.90;99.90;;;;;;5094378;28;20073;-77
2023/10/29 13:05:30;;;;;;;11.05;1.90;;;14.10;99.90;;;;;;5081266;28;20051;-75
2023/10/29 13:08:17;;;;;;;11.57;1.92;;;14.20;99.90;;;;;;5094336;28;20052;-77
2023/10/29 13:11:03;;;;;;;8.98;2.10;;;14.30;99.90;;;;;;5093867;28;20050;-76
2023/10/29 13:13:49;;;;;;;6.78;1.52;;;14.30;99.90;;;;;;5094605;28;20048;-75
2023/10/29 13:16:35;;;;;;;11.80;1.60;;;14.30;99.90;;;;;;5080981;28;20105;-77
2023/10/29 13:19:22;;;;;;;11.05;1.77;;;14.20;99.90;;;;;;5094355;28;20055;-77
2023/10/29 13:22:09;;;;;;;9.43;1.63;;;14.10;99.90;;;;;;5080360;28;20057;-77
2023/10/29 13:24:58;;;;;;;7.90;1.50;;;14.00;99.90;;;;;;5093923;28;20131;-78
2023/10/29 13:27:45;;;;;;;8.48;2.42;;;14.00;99.90;;;;;;5094049;28;20090;-77
2023/10/29 13:30:32;;;;;;;10.55;1.83;;;14.00;99.90;;;;;;5094408;28;20056;-77
2023/10/29 13:33:18;;;;;;;12.15;1.65;;;13.90;99.90;;;;;;5094138;28;20050;-80
2023/10/29 13:36:04;;;;;;;9.60;1.70;;;13.80;99.90;;;;;;5080256;28;20134;-79
2023/10/29 13:38:50;;;;;;;11.30;2.58;;;13.80;99.90;;;;;;5094311;28;20062;-79
2023/10/29 13:41:38;;;;;;;12.75;2.08;;;13.90;99.90;;;;;;5113095;28;20047;-81
2023/10/29 13:44:24;;;;;;;15.00;2.63;;;13.90;99.90;;;;;;5079763;28;20054;-80
2023/10/29 13:47:10;;;;;;;9.50;1.77;;;13.90;99.90;;;;;;5093658;28;20445;-81
2023/10/29 13:49:57;;;;;;;10.95;2.30;;;13.90;99.90;;;;;;5093986;28;20048;-79
2023/10/29 13:52:43;;;;;;;11.68;1.50;;;13.90;99.90;;;;;;5080944;28;20062;-80
2023/10/29 13:55:29;;;;;;;16.48;1.65;;;14.00;99.90;;;;;;5093605;28;20047;-80
2023/10/29 13:58:15;;;;;;;7.70;2.05;;;14.10;99.90;;;;;;5094865;28;20047;-81
2023/10/29 14:01:02;;;;;;;11.15;2.10;;;14.20;99.90;;;;;;5094163;28;20096;-77
2023/10/29 14:03:50;;;;;;;10.85;1.95;;;14.30;99.90;;;;;;5093666;28;20060;-79
2023/10/29 14:06:36;;;;;;;12.07;1.90;;;14.30;99.90;;;;;;5113756;28;20071;-78
2023/10/29 14:09:24;;;;;;;12.57;2.00;;;14.30;99.90;;;;;;5095048;28;20418;-79
2023/10/29 14:12:10;;;;;;;10.48;2.10;;;14.20;99.90;;;;;;5097123;28;20048;-79
2023/10/29 14:14:56;;;;;;;12.40;1.83;;;14.50;99.90;;;;;;5084949;28;20043;-78
2023/10/29 14:17:43;;;;;;;10.40;2.20;;;15.00;99.90;;;;;;5082382;28;20124;-76
2023/10/29 14:20:29;;;;;;;8.73;2.03;;;15.60;99.90;;;;;;5092340;28;20051;-76
2023/10/29 14:23:16;;;;;;;11.15;1.90;;;16.60;99.90;;;;;;5110964;28;20393;-75
2023/10/29 14:26:02;;;;;;;10.95;1.88;;;17.40;99.90;;;;;;5110829;28;20765;-75